sensor_id;sensor_type;location;lat;lon;timestamp;temperature;humidity
17415;DHT22;8825;48.086;16.426;2023-03-31T00:00:46;13.40;59.60
17415;DHT22;8825;48.086;16.426;2023-03-31T00:03:13;13.30;59.70
17415;DHT22;8825;48.086;16.426;2023-03-31T00:05:42;13.30;59.70
17415;DHT22;8825;48.086;16.426;2023-03-31T00:08:11;13.20;59.70
17415;DHT22;8825;48.086;16.426;2023-03-31T00:10:43;13.20;59.80
17415;DHT22;8825;48.086;16.426;2023-03-31T00:13:11;13.10;59.80
17415;DHT22;8825;48.086;16.426;2023-03-31T00:15:38;13.00;59.90
17415;DHT22;8825;48.086;16.426;2023-03-31T00:18:06;13.00;60.00
17415;DHT22;8825;48.086;16.426;2023-03-31T00:20:34;13.00;60.00
17415;DHT22;8825;48.086;16.426;2023-03-31T00:23:04;13.00;60.20
17415;DHT22;8825;48.086;16.426;2023-03-31T00:25:33;12.90;60.20
17415;DHT22;8825;48.086;16.426;2023-03-31T00:28:00;12.90;60.40
17415;DHT22;8825;48.086;16.426;2023-03-31T00:30:28;12.80;60.30
17415;DHT22;8825;48.086;16.426;2023-03-31T00:32:55;12.80;60.50
17415;DHT22;8825;48.086;16.426;2023-03-31T00:35:23;12.80;60.50
17415;DHT22;8825;48.086;16.426;2023-03-31T00:37:51;12.80;60.70
17415;DHT22;8825;48.086;16.426;2023-03-31T00:40:19;12.70;60.80
17415;DHT22;8825;48.086;16.426;2023-03-31T00:42:46;12.70;60.80
17415;DHT22;8825;48.086;16.426;2023-03-31T00:47:51;12.60;60.90
17415;DHT22;8825;48.086;16.426;2023-03-31T00:50:19;12.50;60.80
17415;DHT22;8825;48.086;16.426;2023-03-31T00:52:50;12.50;61.00
17415;DHT22;8825;48.086;16.426;2023-03-31T00:55:20;12.40;61.10
17415;DHT22;8825;48.086;16.426;2023-03-31T00:57:48;12.40;61.30
17415;DHT22;8825;48.086;16.426;2023-03-31T01:00:17;12.30;61.40
17415;DHT22;8825;48.086;16.426;2023-03-31T01:02:51;12.20;61.60
17415;DHT22;8825;48.086;16.426;2023-03-31T01:05:30;12.20;61.90
17415;DHT22;8825;48.086;16.426;2023-03-31T01:07:57;12.10;62.00
17415;DHT22;8825;48.086;16.426;2023-03-31T01:10:26;12.00;61.90
17415;DHT22;8825;48.086;16.426;2023-03-31T01:12:56;12.00;62.20
17415;DHT22;8825;48.086;16.426;2023-03-31T01:15:24;11.90;62.40
17415;DHT22;8825;48.086;16.426;2023-03-31T01:17:52;11.90;62.80
17415;DHT22;8825;48.086;16.426;2023-03-31T01:28:39;11.90;63.20
17415;DHT22;8825;48.086;16.426;2023-03-31T01:31:30;11.90;63.20
17415;DHT22;8825;48.086;16.426;2023-03-31T01:48:23;11.60;63.70
17415;DHT22;8825;48.086;16.426;2023-03-31T01:50:50;11.50;63.90
17415;DHT22;8825;48.086;16.426;2023-03-31T01:53:28;11.40;64.00
17415;DHT22;8825;48.086;16.426;2023-03-31T01:56:09;11.40;64.30
17415;DHT22;8825;48.086;16.426;2023-03-31T01:58:48;11.50;64.60
17415;DHT22;8825;48.086;16.426;2023-03-31T02:01:21;11.50;64.80
17415;DHT22;8825;48.086;16.426;2023-03-31T02:04:02;11.40;65.00
17415;DHT22;8825;48.086;16.426;2023-03-31T02:06:29;11.40;64.40
17415;DHT22;8825;48.086;16.426;2023-03-31T02:09:02;11.30;65.20
17415;DHT22;8825;48.086;16.426;2023-03-31T02:11:32;11.10;65.50
17415;DHT22;8825;48.086;16.426;2023-03-31T02:14:01;11.00;66.10
17415;DHT22;8825;48.086;16.426;2023-03-31T02:16:33;10.90;66.60
17415;DHT22;8825;48.086;16.426;2023-03-31T02:19:03;10.80;67.00
17415;DHT22;8825;48.086;16.426;2023-03-31T02:21:33;10.70;68.10
17415;DHT22;8825;48.086;16.426;2023-03-31T02:24:04;10.60;68.60
17415;DHT22;8825;48.086;16.426;2023-03-31T02:26:39;10.40;68.80
17415;DHT22;8825;48.086;16.426;2023-03-31T02:29:03;10.30;69.20
17415;DHT22;8825;48.086;16.426;2023-03-31T02:34:31;10.20;70.20
17415;DHT22;8825;48.086;16.426;2023-03-31T02:36:59;10.10;70.90
17415;DHT22;8825;48.086;16.426;2023-03-31T02:39:33;10.20;71.00
17415;DHT22;8825;48.086;16.426;2023-03-31T02:41:57;10.20;71.40
17415;DHT22;8825;48.086;16.426;2023-03-31T02:44:24;10.20;71.60
17415;DHT22;8825;48.086;16.426;2023-03-31T02:46:53;10.30;71.70
17415;DHT22;8825;48.086;16.426;2023-03-31T02:49:21;10.40;71.50
17415;DHT22;8825;48.086;16.426;2023-03-31T02:51:55;10.50;71.40
17415;DHT22;8825;48.086;16.426;2023-03-31T02:57:07;10.60;71.00
17415;DHT22;8825;48.086;16.426;2023-03-31T02:59:53;10.60;70.60
17415;DHT22;8825;48.086;16.426;2023-03-31T03:02:36;10.70;71.10
17415;DHT22;8825;48.086;16.426;2023-03-31T03:05:17;10.70;69.90
17415;DHT22;8825;48.086;16.426;2023-03-31T03:13:42;10.70;69.40
17415;DHT22;8825;48.086;16.426;2023-03-31T03:18:41;10.60;68.70
17415;DHT22;8825;48.086;16.426;2023-03-31T03:21:08;10.50;68.30
17415;DHT22;8825;48.086;16.426;2023-03-31T03:23:36;10.50;68.20
17415;DHT22;8825;48.086;16.426;2023-03-31T03:26:03;10.30;67.80
17415;DHT22;8825;48.086;16.426;2023-03-31T03:28:31;10.20;67.40
17415;DHT22;8825;48.086;16.426;2023-03-31T03:30:59;10.10;67.00
17415;DHT22;8825;48.086;16.426;2023-03-31T03:33:26;9.90;67.40
17415;DHT22;8825;48.086;16.426;2023-03-31T03:35:54;9.80;67.90
17415;DHT22;8825;48.086;16.426;2023-03-31T03:38:21;9.70;68.00
17415;DHT22;8825;48.086;16.426;2023-03-31T03:40:53;9.70;68.10
17415;DHT22;8825;48.086;16.426;2023-03-31T03:43:21;9.70;68.30
17415;DHT22;8825;48.086;16.426;2023-03-31T03:45:51;9.70;68.40
17415;DHT22;8825;48.086;16.426;2023-03-31T03:48:19;9.70;68.40
17415;DHT22;8825;48.086;16.426;2023-03-31T03:50:48;9.60;68.40
17415;DHT22;8825;48.086;16.426;2023-03-31T03:53:16;9.60;68.90
17415;DHT22;8825;48.086;16.426;2023-03-31T03:55:43;9.60;70.00
17415;DHT22;8825;48.086;16.426;2023-03-31T03:58:11;9.50;70.70
17415;DHT22;8825;48.086;16.426;2023-03-31T04:00:38;9.40;70.90
17415;DHT22;8825;48.086;16.426;2023-03-31T04:03:06;9.40;71.40
17415;DHT22;8825;48.086;16.426;2023-03-31T04:05:33;9.40;71.90
17415;DHT22;8825;48.086;16.426;2023-03-31T04:08:01;9.30;72.30
17415;DHT22;8825;48.086;16.426;2023-03-31T04:10:29;9.20;72.80
17415;DHT22;8825;48.086;16.426;2023-03-31T04:12:57;9.20;72.90
17415;DHT22;8825;48.086;16.426;2023-03-31T04:15:25;9.10;73.00
17415;DHT22;8825;48.086;16.426;2023-03-31T04:17:52;9.00;72.90
17415;DHT22;8825;48.086;16.426;2023-03-31T04:20:20;9.00;72.90
17415;DHT22;8825;48.086;16.426;2023-03-31T04:22:49;8.90;73.10
17415;DHT22;8825;48.086;16.426;2023-03-31T04:25:17;8.90;73.00
17415;DHT22;8825;48.086;16.426;2023-03-31T04:27:46;8.90;73.00
17415;DHT22;8825;48.086;16.426;2023-03-31T04:30:17;8.80;74.00
17415;DHT22;8825;48.086;16.426;2023-03-31T04:32:53;8.90;74.40
17415;DHT22;8825;48.086;16.426;2023-03-31T04:35:24;8.90;74.90
17415;DHT22;8825;48.086;16.426;2023-03-31T04:37:53;8.90;74.80
17415;DHT22;8825;48.086;16.426;2023-03-31T04:40:22;9.00;74.50
17415;DHT22;8825;48.086;16.426;2023-03-31T04:42:50;9.00;74.30
17415;DHT22;8825;48.086;16.426;2023-03-31T04:45:17;9.10;74.10
17415;DHT22;8825;48.086;16.426;2023-03-31T04:47:45;9.10;73.80
17415;DHT22;8825;48.086;16.426;2023-03-31T04:50:13;9.20;73.60
17415;DHT22;8825;48.086;16.426;2023-03-31T04:52:40;9.20;73.50
17415;DHT22;8825;48.086;16.426;2023-03-31T04:55:08;9.20;73.30
17415;DHT22;8825;48.086;16.426;2023-03-31T04:57:36;9.30;73.20
17415;DHT22;8825;48.086;16.426;2023-03-31T05:00:04;9.40;73.10
17415;DHT22;8825;48.086;16.426;2023-03-31T05:02:36;9.40;72.90
17415;DHT22;8825;48.086;16.426;2023-03-31T05:05:03;9.40;73.00
17415;DHT22;8825;48.086;16.426;2023-03-31T05:07:31;9.50;73.00
17415;DHT22;8825;48.086;16.426;2023-03-31T05:09:59;9.50;72.80
17415;DHT22;8825;48.086;16.426;2023-03-31T05:12:26;9.60;72.30
17415;DHT22;8825;48.086;16.426;2023-03-31T05:14:54;9.60;71.50
17415;DHT22;8825;48.086;16.426;2023-03-31T05:17:21;9.60;70.90
17415;DHT22;8825;48.086;16.426;2023-03-31T05:19:49;9.60;70.60
17415;DHT22;8825;48.086;16.426;2023-03-31T05:22:16;9.60;70.60
17415;DHT22;8825;48.086;16.426;2023-03-31T05:24:46;9.50;70.50
17415;DHT22;8825;48.086;16.426;2023-03-31T05:27:14;9.60;70.80
17415;DHT22;8825;48.086;16.426;2023-03-31T05:29:42;9.60;70.70
17415;DHT22;8825;48.086;16.426;2023-03-31T05:32:09;9.70;70.80
17415;DHT22;8825;48.086;16.426;2023-03-31T05:34:37;9.70;70.80
17415;DHT22;8825;48.086;16.426;2023-03-31T05:37:04;9.80;70.80
17415;DHT22;8825;48.086;16.426;2023-03-31T05:39:32;9.90;70.70
17415;DHT22;8825;48.086;16.426;2023-03-31T05:42:00;9.90;70.60
17415;DHT22;8825;48.086;16.426;2023-03-31T05:44:28;10.00;71.10
17415;DHT22;8825;48.086;16.426;2023-03-31T05:46:56;10.10;70.70
17415;DHT22;8825;48.086;16.426;2023-03-31T05:49:23;10.20;70.90
17415;DHT22;8825;48.086;16.426;2023-03-31T05:51:51;10.30;70.90
17415;DHT22;8825;48.086;16.426;2023-03-31T05:54:18;10.30;70.50
17415;DHT22;8825;48.086;16.426;2023-03-31T05:56:46;10.40;70.90
17415;DHT22;8825;48.086;16.426;2023-03-31T05:59:14;10.40;70.90
17415;DHT22;8825;48.086;16.426;2023-03-31T06:01:41;10.50;70.90
17415;DHT22;8825;48.086;16.426;2023-03-31T06:04:09;10.60;70.80
17415;DHT22;8825;48.086;16.426;2023-03-31T06:06:37;10.60;70.70
17415;DHT22;8825;48.086;16.426;2023-03-31T06:09:05;10.70;70.60
17415;DHT22;8825;48.086;16.426;2023-03-31T06:11:32;10.80;70.70
17415;DHT22;8825;48.086;16.426;2023-03-31T06:14:00;10.80;71.00
17415;DHT22;8825;48.086;16.426;2023-03-31T06:16:27;10.90;71.30
17415;DHT22;8825;48.086;16.426;2023-03-31T06:18:55;11.00;71.30
17415;DHT22;8825;48.086;16.426;2023-03-31T06:21:23;11.20;71.30
17415;DHT22;8825;48.086;16.426;2023-03-31T06:23:50;11.30;71.30
17415;DHT22;8825;48.086;16.426;2023-03-31T06:26:19;11.50;71.80
17415;DHT22;8825;48.086;16.426;2023-03-31T06:28:48;11.60;71.70
17415;DHT22;8825;48.086;16.426;2023-03-31T06:31:19;11.80;71.90
17415;DHT22;8825;48.086;16.426;2023-03-31T06:33:47;11.90;71.60
17415;DHT22;8825;48.086;16.426;2023-03-31T06:36:17;12.10;71.80
17415;DHT22;8825;48.086;16.426;2023-03-31T06:38:45;12.20;71.70
17415;DHT22;8825;48.086;16.426;2023-03-31T06:41:14;12.30;71.40
17415;DHT22;8825;48.086;16.426;2023-03-31T06:43:42;12.50;70.80
17415;DHT22;8825;48.086;16.426;2023-03-31T06:46:10;12.70;70.00
17415;DHT22;8825;48.086;16.426;2023-03-31T06:48:38;12.70;69.40
17415;DHT22;8825;48.086;16.426;2023-03-31T06:51:07;12.90;69.20
17415;DHT22;8825;48.086;16.426;2023-03-31T06:53:35;13.00;68.80
17415;DHT22;8825;48.086;16.426;2023-03-31T06:56:04;13.10;68.40
17415;DHT22;8825;48.086;16.426;2023-03-31T06:58:32;13.20;68.10
17415;DHT22;8825;48.086;16.426;2023-03-31T07:01:06;13.30;67.80
17415;DHT22;8825;48.086;16.426;2023-03-31T07:03:31;13.30;67.70
17415;DHT22;8825;48.086;16.426;2023-03-31T07:05:59;13.30;67.50
17415;DHT22;8825;48.086;16.426;2023-03-31T07:08:26;13.40;67.00
17415;DHT22;8825;48.086;16.426;2023-03-31T07:10:58;13.40;66.60
17415;DHT22;8825;48.086;16.426;2023-03-31T07:13:27;13.40;66.60
17415;DHT22;8825;48.086;16.426;2023-03-31T07:15:55;13.40;66.60
17415;DHT22;8825;48.086;16.426;2023-03-31T07:18:23;13.40;66.70
17415;DHT22;8825;48.086;16.426;2023-03-31T07:20:52;13.50;66.80
17415;DHT22;8825;48.086;16.426;2023-03-31T07:23:20;13.60;66.80
17415;DHT22;8825;48.086;16.426;2023-03-31T07:25:47;13.70;65.80
17415;DHT22;8825;48.086;16.426;2023-03-31T07:28:15;13.80;64.90
17415;DHT22;8825;48.086;16.426;2023-03-31T07:30:43;13.90;64.40
17415;DHT22;8825;48.086;16.426;2023-03-31T07:33:10;14.00;64.20
17415;DHT22;8825;48.086;16.426;2023-03-31T07:35:39;14.00;63.70
17415;DHT22;8825;48.086;16.426;2023-03-31T07:38:09;14.00;63.70
17415;DHT22;8825;48.086;16.426;2023-03-31T07:40:37;14.00;63.50
17415;DHT22;8825;48.086;16.426;2023-03-31T07:43:06;14.10;63.70
17415;DHT22;8825;48.086;16.426;2023-03-31T07:45:34;14.20;63.00
17415;DHT22;8825;48.086;16.426;2023-03-31T07:48:01;14.30;62.30
17415;DHT22;8825;48.086;16.426;2023-03-31T07:50:29;14.40;61.90
17415;DHT22;8825;48.086;16.426;2023-03-31T07:52:57;14.40;61.70
17415;DHT22;8825;48.086;16.426;2023-03-31T07:55:24;14.50;61.70
17415;DHT22;8825;48.086;16.426;2023-03-31T07:57:52;14.60;61.30
17415;DHT22;8825;48.086;16.426;2023-03-31T08:00:20;14.60;61.10
17415;DHT22;8825;48.086;16.426;2023-03-31T08:02:48;14.80;61.00
17415;DHT22;8825;48.086;16.426;2023-03-31T08:05:17;14.90;60.70
17415;DHT22;8825;48.086;16.426;2023-03-31T08:07:47;15.00;61.00
17415;DHT22;8825;48.086;16.426;2023-03-31T08:10:20;15.10;60.70
17415;DHT22;8825;48.086;16.426;2023-03-31T08:12:48;15.20;60.60
17415;DHT22;8825;48.086;16.426;2023-03-31T08:15:16;15.30;60.80
17415;DHT22;8825;48.086;16.426;2023-03-31T08:17:43;15.40;60.30
17415;DHT22;8825;48.086;16.426;2023-03-31T08:20:11;15.50;59.90
17415;DHT22;8825;48.086;16.426;2023-03-31T08:22:39;15.60;59.60
17415;DHT22;8825;48.086;16.426;2023-03-31T08:25:07;15.70;59.20
17415;DHT22;8825;48.086;16.426;2023-03-31T08:27:37;15.70;59.00
17415;DHT22;8825;48.086;16.426;2023-03-31T08:30:09;15.90;59.00
17415;DHT22;8825;48.086;16.426;2023-03-31T08:32:37;16.00;59.00
17415;DHT22;8825;48.086;16.426;2023-03-31T08:35:06;16.10;58.80
17415;DHT22;8825;48.086;16.426;2023-03-31T08:37:34;16.10;58.40
17415;DHT22;8825;48.086;16.426;2023-03-31T08:40:04;16.20;58.50
17415;DHT22;8825;48.086;16.426;2023-03-31T08:42:40;16.30;58.20
17415;DHT22;8825;48.086;16.426;2023-03-31T08:45:28;16.40;57.90
17415;DHT22;8825;48.086;16.426;2023-03-31T08:48:19;16.40;57.60
17415;DHT22;8825;48.086;16.426;2023-03-31T08:50:34;16.50;57.70
17415;DHT22;8825;48.086;16.426;2023-03-31T08:53:11;16.50;56.90
17415;DHT22;8825;48.086;16.426;2023-03-31T08:55:52;16.50;55.90
17415;DHT22;8825;48.086;16.426;2023-03-31T08:58:28;16.50;55.20
17415;DHT22;8825;48.086;16.426;2023-03-31T09:06:51;16.70;55.70
17415;DHT22;8825;48.086;16.426;2023-03-31T09:12:29;16.80;55.10
17415;DHT22;8825;48.086;16.426;2023-03-31T09:15:04;16.90;54.60
17415;DHT22;8825;48.086;16.426;2023-03-31T09:17:40;16.80;53.90
17415;DHT22;8825;48.086;16.426;2023-03-31T09:20:22;16.70;54.20
17415;DHT22;8825;48.086;16.426;2023-03-31T09:23:09;16.70;54.10
17415;DHT22;8825;48.086;16.426;2023-03-31T09:25:37;16.60;54.30
17415;DHT22;8825;48.086;16.426;2023-03-31T09:28:12;16.60;54.20
17415;DHT22;8825;48.086;16.426;2023-03-31T09:30:37;16.50;54.40
17415;DHT22;8825;48.086;16.426;2023-03-31T09:33:20;16.50;55.00
17415;DHT22;8825;48.086;16.426;2023-03-31T09:35:48;16.40;54.70
17415;DHT22;8825;48.086;16.426;2023-03-31T09:38:15;16.40;55.20
17415;DHT22;8825;48.086;16.426;2023-03-31T09:40:43;16.30;55.00
17415;DHT22;8825;48.086;16.426;2023-03-31T09:43:28;16.30;54.50
17415;DHT22;8825;48.086;16.426;2023-03-31T09:45:58;16.30;54.70
17415;DHT22;8825;48.086;16.426;2023-03-31T09:48:28;16.40;54.60
17415;DHT22;8825;48.086;16.426;2023-03-31T09:51:04;16.40;54.50
17415;DHT22;8825;48.086;16.426;2023-03-31T09:53:34;16.40;54.10
17415;DHT22;8825;48.086;16.426;2023-03-31T09:56:05;16.50;53.30
17415;DHT22;8825;48.086;16.426;2023-03-31T09:58:41;16.50;53.40
17415;DHT22;8825;48.086;16.426;2023-03-31T10:01:11;16.60;53.40
17415;DHT22;8825;48.086;16.426;2023-03-31T10:03:50;16.70;53.30
17415;DHT22;8825;48.086;16.426;2023-03-31T10:06:19;16.80;53.30
17415;DHT22;8825;48.086;16.426;2023-03-31T10:08:50;16.80;51.30
17415;DHT22;8825;48.086;16.426;2023-03-31T10:11:18;16.70;51.90
17415;DHT22;8825;48.086;16.426;2023-03-31T10:16:31;16.70;52.70
17415;DHT22;8825;48.086;16.426;2023-03-31T10:19:21;16.70;52.90
17415;DHT22;8825;48.086;16.426;2023-03-31T10:22:13;16.70;53.50
17415;DHT22;8825;48.086;16.426;2023-03-31T10:24:43;16.70;53.00
17415;DHT22;8825;48.086;16.426;2023-03-31T10:27:22;16.70;52.90
17415;DHT22;8825;48.086;16.426;2023-03-31T10:29:52;16.70;52.30
17415;DHT22;8825;48.086;16.426;2023-03-31T10:32:29;16.70;51.90
17415;DHT22;8825;48.086;16.426;2023-03-31T10:34:58;16.90;52.50
17415;DHT22;8825;48.086;16.426;2023-03-31T10:37:28;16.90;51.80
17415;DHT22;8825;48.086;16.426;2023-03-31T10:40:02;17.00;50.30
17415;DHT22;8825;48.086;16.426;2023-03-31T10:42:33;17.10;49.80
17415;DHT22;8825;48.086;16.426;2023-03-31T10:45:24;17.20;50.70
17415;DHT22;8825;48.086;16.426;2023-03-31T10:47:54;17.40;50.70
17415;DHT22;8825;48.086;16.426;2023-03-31T10:50:31;17.50;49.80
17415;DHT22;8825;48.086;16.426;2023-03-31T10:53:04;17.60;50.00
17415;DHT22;8825;48.086;16.426;2023-03-31T10:55:45;17.70;50.00
17415;DHT22;8825;48.086;16.426;2023-03-31T10:58:31;17.70;49.90
17415;DHT22;8825;48.086;16.426;2023-03-31T11:01:09;17.70;49.60
17415;DHT22;8825;48.086;16.426;2023-03-31T11:03:36;17.70;50.10
17415;DHT22;8825;48.086;16.426;2023-03-31T11:07:00;17.80;50.10
17415;DHT22;8825;48.086;16.426;2023-03-31T11:09:10;17.80;49.40
17415;DHT22;8825;48.086;16.426;2023-03-31T11:11:54;17.70;48.90
17415;DHT22;8825;48.086;16.426;2023-03-31T11:14:43;17.70;48.80
17415;DHT22;8825;48.086;16.426;2023-03-31T11:25:38;17.60;49.40
17415;DHT22;8825;48.086;16.426;2023-03-31T11:28:35;17.70;49.80
17415;DHT22;8825;48.086;16.426;2023-03-31T11:31:16;17.70;49.80
17415;DHT22;8825;48.086;16.426;2023-03-31T11:36:56;17.70;49.70
17415;DHT22;8825;48.086;16.426;2023-03-31T11:39:32;17.90;50.10
17415;DHT22;8825;48.086;16.426;2023-03-31T11:42:09;18.10;49.90
17415;DHT22;8825;48.086;16.426;2023-03-31T11:44:40;18.20;49.70
17415;DHT22;8825;48.086;16.426;2023-03-31T11:47:11;18.40;49.30
17415;DHT22;8825;48.086;16.426;2023-03-31T11:49:40;18.60;48.90
17415;DHT22;8825;48.086;16.426;2023-03-31T11:52:14;18.70;48.40
17415;DHT22;8825;48.086;16.426;2023-03-31T11:55:00;18.70;48.00
17415;DHT22;8825;48.086;16.426;2023-03-31T11:57:38;18.80;48.30
17415;DHT22;8825;48.086;16.426;2023-03-31T12:00:10;19.10;48.30
17415;DHT22;8825;48.086;16.426;2023-03-31T12:05:10;19.60;47.80
17415;DHT22;8825;48.086;16.426;2023-03-31T12:07:45;19.90;47.70
17415;DHT22;8825;48.086;16.426;2023-03-31T12:10:18;20.20;46.80
17415;DHT22;8825;48.086;16.426;2023-03-31T12:15:45;20.10;45.00
17415;DHT22;8825;48.086;16.426;2023-03-31T12:18:17;20.10;45.60
17415;DHT22;8825;48.086;16.426;2023-03-31T12:20:52;20.00;46.10
17415;DHT22;8825;48.086;16.426;2023-03-31T12:23:22;19.90;45.10
17415;DHT22;8825;48.086;16.426;2023-03-31T12:28:25;19.60;44.50
17415;DHT22;8825;48.086;16.426;2023-03-31T12:30:54;19.40;44.60
17415;DHT22;8825;48.086;16.426;2023-03-31T12:36:06;19.00;45.50
17415;DHT22;8825;48.086;16.426;2023-03-31T12:39:06;19.00;46.00
17415;DHT22;8825;48.086;16.426;2023-03-31T12:44:32;18.60;45.40
17415;DHT22;8825;48.086;16.426;2023-03-31T12:47:12;18.50;45.60
17415;DHT22;8825;48.086;16.426;2023-03-31T13:01:13;18.80;46.00
17415;DHT22;8825;48.086;16.426;2023-03-31T13:03:46;19.00;45.90
17415;DHT22;8825;48.086;16.426;2023-03-31T13:08:58;19.00;45.40
17415;DHT22;8825;48.086;16.426;2023-03-31T13:14:12;19.00;45.60
17415;DHT22;8825;48.086;16.426;2023-03-31T13:16:41;19.10;45.40
17415;DHT22;8825;48.086;16.426;2023-03-31T13:19:25;19.20;45.50
17415;DHT22;8825;48.086;16.426;2023-03-31T13:21:58;19.40;45.30
17415;DHT22;8825;48.086;16.426;2023-03-31T13:24:28;19.70;45.40
17415;DHT22;8825;48.086;16.426;2023-03-31T13:26:58;19.80;43.50
17415;DHT22;8825;48.086;16.426;2023-03-31T13:29:38;19.90;43.60
17415;DHT22;8825;48.086;16.426;2023-03-31T13:32:16;20.00;44.10
17415;DHT22;8825;48.086;16.426;2023-03-31T13:34:39;20.00;44.50
17415;DHT22;8825;48.086;16.426;2023-03-31T13:40:19;20.10;45.00
17415;DHT22;8825;48.086;16.426;2023-03-31T13:51:49;20.10;41.40
17415;DHT22;8825;48.086;16.426;2023-03-31T14:02:35;19.50;44.00
17415;DHT22;8825;48.086;16.426;2023-03-31T14:05:25;19.60;44.40
17415;DHT22;8825;48.086;16.426;2023-03-31T14:10:35;19.50;44.50
17415;DHT22;8825;48.086;16.426;2023-03-31T14:13:10;19.50;44.50
17415;DHT22;8825;48.086;16.426;2023-03-31T14:15:58;19.50;44.70
17415;DHT22;8825;48.086;16.426;2023-03-31T14:18:20;19.50;44.90
17415;DHT22;8825;48.086;16.426;2023-03-31T14:26:34;19.50;45.30
17415;DHT22;8825;48.086;16.426;2023-03-31T14:35:16;19.40;43.30
17415;DHT22;8825;48.086;16.426;2023-03-31T14:37:09;19.40;42.10
17415;DHT22;8825;48.086;16.426;2023-03-31T14:39:42;19.40;42.00
17415;DHT22;8825;48.086;16.426;2023-03-31T14:42:18;19.30;40.50
17415;DHT22;8825;48.086;16.426;2023-03-31T14:44:46;19.30;39.80
17415;DHT22;8825;48.086;16.426;2023-03-31T14:47:21;19.30;39.40
17415;DHT22;8825;48.086;16.426;2023-03-31T14:52:31;19.20;38.00
17415;DHT22;8825;48.086;16.426;2023-03-31T14:55:01;19.20;38.20
17415;DHT22;8825;48.086;16.426;2023-03-31T14:57:34;19.20;38.40
17415;DHT22;8825;48.086;16.426;2023-03-31T15:00:06;19.20;38.70
17415;DHT22;8825;48.086;16.426;2023-03-31T15:02:37;19.20;39.00
17415;DHT22;8825;48.086;16.426;2023-03-31T15:05:08;19.20;38.90
17415;DHT22;8825;48.086;16.426;2023-03-31T15:07:37;19.10;38.60
17415;DHT22;8825;48.086;16.426;2023-03-31T15:10:06;19.10;37.90
17415;DHT22;8825;48.086;16.426;2023-03-31T15:12:34;19.00;37.60
17415;DHT22;8825;48.086;16.426;2023-03-31T15:15:05;19.00;37.80
17415;DHT22;8825;48.086;16.426;2023-03-31T15:17:39;19.00;37.30
17415;DHT22;8825;48.086;16.426;2023-03-31T15:20:35;18.90;39.20
17415;DHT22;8825;48.086;16.426;2023-03-31T15:23:04;18.70;41.20
17415;DHT22;8825;48.086;16.426;2023-03-31T15:25:38;18.40;41.60
17415;DHT22;8825;48.086;16.426;2023-03-31T15:28:06;18.20;43.00
17415;DHT22;8825;48.086;16.426;2023-03-31T15:30:34;18.00;43.60
17415;DHT22;8825;48.086;16.426;2023-03-31T15:33:05;17.80;44.70
17415;DHT22;8825;48.086;16.426;2023-03-31T15:35:34;17.50;45.90
17415;DHT22;8825;48.086;16.426;2023-03-31T15:38:05;17.30;46.50
17415;DHT22;8825;48.086;16.426;2023-03-31T15:40:38;17.10;47.80
17415;DHT22;8825;48.086;16.426;2023-03-31T15:43:18;16.90;49.00
17415;DHT22;8825;48.086;16.426;2023-03-31T15:45:48;16.60;49.60
17415;DHT22;8825;48.086;16.426;2023-03-31T15:48:24;16.40;49.30
17415;DHT22;8825;48.086;16.426;2023-03-31T15:50:48;16.10;50.00
17415;DHT22;8825;48.086;16.426;2023-03-31T15:53:28;15.90;51.10
17415;DHT22;8825;48.086;16.426;2023-03-31T15:55:57;15.80;51.50
17415;DHT22;8825;48.086;16.426;2023-03-31T15:58:52;15.70;51.50
17415;DHT22;8825;48.086;16.426;2023-03-31T16:01:16;15.50;51.80
17415;DHT22;8825;48.086;16.426;2023-03-31T16:03:44;15.40;52.30
17415;DHT22;8825;48.086;16.426;2023-03-31T16:06:38;15.30;52.60
17415;DHT22;8825;48.086;16.426;2023-03-31T16:09:07;15.20;52.70
17415;DHT22;8825;48.086;16.426;2023-03-31T16:14:21;15.00;53.10
17415;DHT22;8825;48.086;16.426;2023-03-31T16:16:57;15.00;53.20
17415;DHT22;8825;48.086;16.426;2023-03-31T16:19:27;15.00;53.40
17415;DHT22;8825;48.086;16.426;2023-03-31T16:21:57;14.90;53.70
17415;DHT22;8825;48.086;16.426;2023-03-31T16:24:32;14.90;53.60
17415;DHT22;8825;48.086;16.426;2023-03-31T16:27:03;14.90;53.70
17415;DHT22;8825;48.086;16.426;2023-03-31T16:29:33;14.80;53.70
17415;DHT22;8825;48.086;16.426;2023-03-31T16:32:08;14.80;53.80
17415;DHT22;8825;48.086;16.426;2023-03-31T16:34:56;14.80;54.00
17415;DHT22;8825;48.086;16.426;2023-03-31T16:37:25;14.80;54.10
17415;DHT22;8825;48.086;16.426;2023-03-31T16:39:52;14.70;54.60
17415;DHT22;8825;48.086;16.426;2023-03-31T16:42:20;14.60;54.70
17415;DHT22;8825;48.086;16.426;2023-03-31T16:44:47;14.60;55.10
17415;DHT22;8825;48.086;16.426;2023-03-31T16:47:15;14.60;55.50
17415;DHT22;8825;48.086;16.426;2023-03-31T16:49:42;14.60;55.80
17415;DHT22;8825;48.086;16.426;2023-03-31T16:52:10;14.50;56.10
17415;DHT22;8825;48.086;16.426;2023-03-31T16:54:37;14.50;56.40
17415;DHT22;8825;48.086;16.426;2023-03-31T16:57:05;14.40;56.60
17415;DHT22;8825;48.086;16.426;2023-03-31T16:59:32;14.30;56.60
17415;DHT22;8825;48.086;16.426;2023-03-31T17:02:00;14.30;56.80
17415;DHT22;8825;48.086;16.426;2023-03-31T17:04:27;14.30;56.70
17415;DHT22;8825;48.086;16.426;2023-03-31T17:06:55;14.30;56.60
17415;DHT22;8825;48.086;16.426;2023-03-31T17:09:23;14.30;56.70
17415;DHT22;8825;48.086;16.426;2023-03-31T17:11:50;14.20;56.50
17415;DHT22;8825;48.086;16.426;2023-03-31T17:14:18;14.20;56.60
17415;DHT22;8825;48.086;16.426;2023-03-31T17:16:45;14.20;56.50
17415;DHT22;8825;48.086;16.426;2023-03-31T17:19:15;14.20;56.50
17415;DHT22;8825;48.086;16.426;2023-03-31T17:21:43;14.10;56.70
17415;DHT22;8825;48.086;16.426;2023-03-31T17:24:10;14.10;56.70
17415;DHT22;8825;48.086;16.426;2023-03-31T17:26:38;14.00;56.70
17415;DHT22;8825;48.086;16.426;2023-03-31T17:29:05;14.00;56.80
17415;DHT22;8825;48.086;16.426;2023-03-31T17:31:33;14.00;56.80
17415;DHT22;8825;48.086;16.426;2023-03-31T17:34:01;14.00;56.90
17415;DHT22;8825;48.086;16.426;2023-03-31T17:36:30;13.90;56.90
17415;DHT22;8825;48.086;16.426;2023-03-31T17:38:57;13.90;56.80
17415;DHT22;8825;48.086;16.426;2023-03-31T17:41:26;13.90;56.80
17415;DHT22;8825;48.086;16.426;2023-03-31T17:43:57;13.90;56.90
17415;DHT22;8825;48.086;16.426;2023-03-31T17:46:24;13.90;56.90
17415;DHT22;8825;48.086;16.426;2023-03-31T17:48:52;13.90;56.90
17415;DHT22;8825;48.086;16.426;2023-03-31T17:51:21;13.90;56.90
17415;DHT22;8825;48.086;16.426;2023-03-31T17:53:49;13.90;56.90
17415;DHT22;8825;48.086;16.426;2023-03-31T17:56:17;13.90;56.90
17415;DHT22;8825;48.086;16.426;2023-03-31T17:58:45;13.80;56.80
17415;DHT22;8825;48.086;16.426;2023-03-31T18:01:13;13.90;56.80
17415;DHT22;8825;48.086;16.426;2023-03-31T18:03:41;13.80;56.70
17415;DHT22;8825;48.086;16.426;2023-03-31T18:06:12;13.90;56.70
17415;DHT22;8825;48.086;16.426;2023-03-31T18:08:41;13.90;56.50